sensor_id;sensor_type;location;lat;lon;timestamp;pressure;altitude;pressure_sealevel;temperature;humidity
23303;BME280;11820;48.738;9.092;2024-03-02T00:01:48;95136.13;;;7.24;nan
23303;BME280;11820;48.738;9.092;2024-03-02T00:04:13;95138.72;;;7.24;nan
23303;BME280;11820;48.738;9.092;2024-03-02T00:06:38;95130.63;;;7.21;nan
23303;BME280;11820;48.738;9.092;2024-03-02T00:09:04;95129.00;;;7.26;nan
23303;BME280;11820;48.738;9.092;2024-03-02T00:11:29;95131.03;;;7.18;nan
23303;BME280;11820;48.738;9.092;2024-03-02T00:13:54;95137.75;;;7.12;nan
23303;BME280;11820;48.738;9.092;2024-03-02T00:16:20;95129.44;;;7.04;nan
23303;BME280;11820;48.738;9.092;2024-03-02T00:18:45;95128.88;;;7.02;nan
23303;BME280;11820;48.738;9.092;2024-03-02T00:21:11;95129.44;;;7.10;nan
23303;BME280;11820;48.738;9.092;2024-03-02T00:23:38;95128.88;;;7.08;nan
23303;BME280;11820;48.738;9.092;2024-03-02T00:26:03;95127.47;;;7.12;nan
23303;BME280;11820;48.738;9.092;2024-03-02T00:28:32;95143.66;;;7.13;nan
23303;BME280;11820;48.738;9.092;2024-03-02T00:31:03;95144.09;;;7.03;nan
23303;BME280;11820;48.738;9.092;2024-03-02T00:33:37;95141.72;;;7.02;nan
23303;BME280;11820;48.738;9.092;2024-03-02T00:36:04;95138.34;;;7.01;nan
23303;BME280;11820;48.738;9.092;2024-03-02T00:38:30;95147.25;;;7.05;nan
23303;BME280;11820;48.738;9.092;2024-03-02T00:40:58;95132.22;;;7.09;nan
23303;BME280;11820;48.738;9.092;2024-03-02T00:43:47;95135.41;;;7.04;nan
23303;BME280;11820;48.738;9.092;2024-03-02T00:46:20;95130.84;;;7.06;nan
23303;BME280;11820;48.738;9.092;2024-03-02T00:48:58;95127.28;;;7.07;nan
23303;BME280;11820;48.738;9.092;2024-03-02T00:51:25;95136.97;;;6.99;nan
23303;BME280;11820;48.738;9.092;2024-03-02T00:53:55;95131.44;;;6.95;nan
23303;BME280;11820;48.738;9.092;2024-03-02T00:56:22;95135.59;;;6.96;nan
23303;BME280;11820;48.738;9.092;2024-03-02T00:58:48;95129.06;;;7.00;nan
23303;BME280;11820;48.738;9.092;2024-03-02T01:01:13;95125.91;;;6.98;nan
23303;BME280;11820;48.738;9.092;2024-03-02T01:03:39;95130.25;;;6.98;nan
23303;BME280;11820;48.738;9.092;2024-03-02T01:06:05;95132.25;;;7.02;nan
23303;BME280;11820;48.738;9.092;2024-03-02T01:08:31;95126.88;;;6.97;nan
23303;BME280;11820;48.738;9.092;2024-03-02T01:10:57;95140.13;;;6.94;nan
23303;BME280;11820;48.738;9.092;2024-03-02T01:13:22;95130.66;;;6.88;nan
23303;BME280;11820;48.738;9.092;2024-03-02T01:15:48;95127.69;;;6.91;nan
23303;BME280;11820;48.738;9.092;2024-03-02T01:18:14;95126.09;;;6.90;nan
23303;BME280;11820;48.738;9.092;2024-03-02T01:20:39;95131.84;;;6.92;nan
23303;BME280;11820;48.738;9.092;2024-03-02T01:23:04;95120.38;;;6.88;nan
23303;BME280;11820;48.738;9.092;2024-03-02T01:25:30;95125.50;;;6.82;nan
23303;BME280;11820;48.738;9.092;2024-03-02T01:27:55;95126.50;;;6.87;nan
23303;BME280;11820;48.738;9.092;2024-03-02T01:30:20;95137.00;;;6.79;nan
23303;BME280;11820;48.738;9.092;2024-03-02T01:32:46;95128.50;;;6.85;nan
23303;BME280;11820;48.738;9.092;2024-03-02T01:35:12;95122.94;;;6.75;nan
23303;BME280;11820;48.738;9.092;2024-03-02T01:37:37;95126.72;;;6.79;nan
23303;BME280;11820;48.738;9.092;2024-03-02T01:40:03;95129.06;;;6.74;nan
23303;BME280;11820;48.738;9.092;2024-03-02T01:42:34;95125.50;;;6.82;nan
23303;BME280;11820;48.738;9.092;2024-03-02T01:45:00;95122.56;;;6.78;nan
23303;BME280;11820;48.738;9.092;2024-03-02T01:47:25;95125.91;;;6.79;nan
23303;BME280;11820;48.738;9.092;2024-03-02T01:49:50;95128.69;;;6.64;nan
23303;BME280;11820;48.738;9.092;2024-03-02T01:52:16;95128.28;;;6.67;nan
23303;BME280;11820;48.738;9.092;2024-03-02T01:54:41;95129.50;;;6.65;nan
23303;BME280;11820;48.738;9.092;2024-03-02T01:57:06;95130.66;;;6.69;nan
23303;BME280;11820;48.738;9.092;2024-03-02T01:59:32;95120.78;;;6.72;nan
23303;BME280;11820;48.738;9.092;2024-03-02T02:01:57;95123.16;;;6.74;nan
23303;BME280;11820;48.738;9.092;2024-03-02T02:04:22;95128.28;;;6.67;nan
23303;BME280;11820;48.738;9.092;2024-03-02T02:06:52;95120.00;;;6.65;nan
23303;BME280;11820;48.738;9.092;2024-03-02T02:09:17;95114.06;;;6.78;nan
23303;BME280;11820;48.738;9.092;2024-03-02T02:11:43;95116.03;;;6.69;nan
23303;BME280;11820;48.738;9.092;2024-03-02T02:14:08;95119.59;;;6.75;nan
23303;BME280;11820;48.738;9.092;2024-03-02T02:16:34;95108.72;;;6.73;nan
23303;BME280;11820;48.738;9.092;2024-03-02T02:18:59;95123.53;;;6.64;nan
23303;BME280;11820;48.738;9.092;2024-03-02T02:21:24;95118.59;;;6.69;nan
23303;BME280;11820;48.738;9.092;2024-03-02T02:23:50;95116.03;;;6.69;nan
23303;BME280;11820;48.738;9.092;2024-03-02T02:26:15;95112.47;;;6.70;nan
23303;BME280;11820;48.738;9.092;2024-03-02T02:28:41;95116.03;;;6.63;nan
23303;BME280;11820;48.738;9.092;2024-03-02T02:31:12;95113.66;;;6.61;nan
23303;BME280;11820;48.738;9.092;2024-03-02T02:33:39;95104.19;;;6.68;nan
23303;BME280;11820;48.738;9.092;2024-03-02T02:36:05;95106.97;;;6.60;nan
23303;BME280;11820;48.738;9.092;2024-03-02T02:38:32;95099.25;;;6.60;nan
23303;BME280;11820;48.738;9.092;2024-03-02T02:40:58;95093.50;;;6.52;nan
23303;BME280;11820;48.738;9.092;2024-03-02T02:43:23;95096.88;;;6.52;nan
23303;BME280;11820;48.738;9.092;2024-03-02T02:45:48;95094.50;;;6.57;nan
23303;BME280;11820;48.738;9.092;2024-03-02T02:48:14;95095.09;;;6.53;nan
23303;BME280;11820;48.738;9.092;2024-03-02T02:50:39;95085.22;;;6.56;nan
23303;BME280;11820;48.738;9.092;2024-03-02T02:53:05;95084.44;;;6.56;nan
23303;BME280;11820;48.738;9.092;2024-03-02T02:55:31;95089.56;;;6.49;nan
23303;BME280;11820;48.738;9.092;2024-03-02T02:57:56;95096.69;;;6.54;nan
23303;BME280;11820;48.738;9.092;2024-03-02T03:00:22;95095.09;;;6.53;nan
23303;BME280;11820;48.738;9.092;2024-03-02T03:02:49;95090.75;;;6.53;nan
23303;BME280;11820;48.738;9.092;2024-03-02T03:05:16;95093.72;;;6.57;nan
23303;BME280;11820;48.738;9.092;2024-03-02T03:07:41;95093.91;;;6.55;nan
23303;BME280;11820;48.738;9.092;2024-03-02T03:10:07;95093.53;;;6.58;nan
23303;BME280;11820;48.738;9.092;2024-03-02T03:12:34;95096.88;;;6.52;nan
23303;BME280;11820;48.738;9.092;2024-03-02T03:14:59;95098.66;;;6.58;nan
23303;BME280;11820;48.738;9.092;2024-03-02T03:17:25;95097.09;;;6.57;nan
23303;BME280;11820;48.738;9.092;2024-03-02T03:19:50;95097.28;;;6.62;nan
23303;BME280;11820;48.738;9.092;2024-03-02T03:22:16;95094.31;;;6.59;nan
23303;BME280;11820;48.738;9.092;2024-03-02T03:24:42;95091.16;;;6.63;nan
23303;BME280;11820;48.738;9.092;2024-03-02T03:27:07;95093.72;;;6.63;nan
23303;BME280;11820;48.738;9.092;2024-03-02T03:29:32;95082.84;;;6.61;nan
23303;BME280;11820;48.738;9.092;2024-03-02T03:31:58;95088.19;;;6.53;nan
23303;BME280;11820;48.738;9.092;2024-03-02T03:34:23;95096.28;;;6.57;nan
23303;BME280;11820;48.738;9.092;2024-03-02T03:36:48;95094.53;;;6.64;nan
23303;BME280;11820;48.738;9.092;2024-03-02T03:39:14;95090.75;;;6.60;nan
23303;BME280;11820;48.738;9.092;2024-03-02T03:41:42;95091.94;;;6.57;nan
23303;BME280;11820;48.738;9.092;2024-03-02T03:44:07;95082.44;;;6.58;nan
23303;BME280;11820;48.738;9.092;2024-03-02T03:46:33;95085.81;;;6.58;nan
23303;BME280;11820;48.738;9.092;2024-03-02T03:48:58;95081.09;;;6.55;nan
23303;BME280;11820;48.738;9.092;2024-03-02T03:51:24;95094.91;;;6.54;nan
23303;BME280;11820;48.738;9.092;2024-03-02T03:53:49;95093.13;;;6.61;nan
23303;BME280;11820;48.738;9.092;2024-03-02T03:56:14;95093.13;;;6.55;nan
23303;BME280;11820;48.738;9.092;2024-03-02T03:58:40;95093.72;;;6.57;nan
23303;BME280;11820;48.738;9.092;2024-03-02T04:01:05;95089.19;;;6.52;nan
23303;BME280;11820;48.738;9.092;2024-03-02T04:03:30;95101.41;;;6.50;nan
23303;BME280;11820;48.738;9.092;2024-03-02T04:05:56;95099.44;;;6.46;nan
23303;BME280;11820;48.738;9.092;2024-03-02T04:08:21;95100.41;;;6.38;nan
23303;BME280;11820;48.738;9.092;2024-03-02T04:10:47;95091.34;;;6.42;nan
23303;BME280;11820;48.738;9.092;2024-03-02T04:13:12;95089.56;;;6.37;nan
23303;BME280;11820;48.738;9.092;2024-03-02T04:15:38;95085.63;;;6.40;nan
23303;BME280;11820;48.738;9.092;2024-03-02T04:18:03;95094.69;;;6.37;nan
23303;BME280;11820;48.738;9.092;2024-03-02T04:20:28;95095.50;;;6.31;nan
23303;BME280;11820;48.738;9.092;2024-03-02T04:22:55;95095.09;;;6.34;nan
23303;BME280;11820;48.738;9.092;2024-03-02T04:25:20;95089.38;;;6.38;nan
23303;BME280;11820;48.738;9.092;2024-03-02T04:27:45;95101.59;;;6.30;nan
23303;BME280;11820;48.738;9.092;2024-03-02T04:30:11;95103.00;;;6.26;nan
23303;BME280;11820;48.738;9.092;2024-03-02T04:32:36;95092.31;;;6.22;nan
23303;BME280;11820;48.738;9.092;2024-03-02T04:35:02;95097.84;;;6.26;nan
23303;BME280;11820;48.738;9.092;2024-03-02T04:37:27;95103.78;;;6.33;nan
23303;BME280;11820;48.738;9.092;2024-03-02T04:39:52;95098.22;;;6.23;nan
23303;BME280;11820;48.738;9.092;2024-03-02T04:42:18;95099.03;;;6.23;nan
23303;BME280;11820;48.738;9.092;2024-03-02T04:44:43;95100.03;;;6.29;nan
23303;BME280;11820;48.738;9.092;2024-03-02T04:47:08;95093.09;;;6.23;nan
23303;BME280;11820;48.738;9.092;2024-03-02T04:49:33;95096.03;;;6.20;nan
23303;BME280;11820;48.738;9.092;2024-03-02T04:51:59;95097.44;;;6.16;nan
23303;BME280;11820;48.738;9.092;2024-03-02T04:54:24;95103.13;;;6.11;nan
23303;BME280;11820;48.738;9.092;2024-03-02T04:56:50;95099.78;;;6.11;nan
23303;BME280;11820;48.738;9.092;2024-03-02T04:59:16;95095.06;;;6.08;nan
23303;BME280;11820;48.738;9.092;2024-03-02T05:01:42;95100.56;;;6.05;nan
23303;BME280;11820;48.738;9.092;2024-03-02T05:04:08;95104.28;;;5.96;nan
23303;BME280;11820;48.738;9.092;2024-03-02T05:06:33;95100.34;;;6.00;nan
23303;BME280;11820;48.738;9.092;2024-03-02T05:08:58;95096.03;;;6.00;nan
23303;BME280;11820;48.738;9.092;2024-03-02T05:11:24;95103.31;;;5.97;nan
23303;BME280;11820;48.738;9.092;2024-03-02T05:14:05;95103.69;;;5.94;nan
23303;BME280;11820;48.738;9.092;2024-03-02T05:16:35;95100.97;;;6.02;nan
23303;BME280;11820;48.738;9.092;2024-03-02T05:19:00;95099.38;;;6.07;nan
23303;BME280;11820;48.738;9.092;2024-03-02T05:21:26;95097.22;;;6.11;nan
23303;BME280;11820;48.738;9.092;2024-03-02T05:23:51;95104.50;;;5.94;nan
23303;BME280;11820;48.738;9.092;2024-03-02T05:26:16;95108.03;;;5.87;nan
23303;BME280;11820;48.738;9.092;2024-03-02T05:28:42;95106.66;;;5.50;nan
23303;BME280;11820;48.738;9.092;2024-03-02T05:31:10;95116.31;;;5.48;nan
23303;BME280;11820;48.738;9.092;2024-03-02T05:33:37;95111.75;;;5.37;nan
23303;BME280;11820;48.738;9.092;2024-03-02T05:36:03;95108.75;;;5.34;nan
23303;BME280;11820;48.738;9.092;2024-03-02T05:38:29;95124.44;;;5.52;nan
23303;BME280;11820;48.738;9.092;2024-03-02T05:40:55;95122.25;;;5.49;nan
23303;BME280;11820;48.738;9.092;2024-03-02T05:43:20;95121.72;;;5.66;nan
23303;BME280;11820;48.738;9.092;2024-03-02T05:45:45;95119.41;;;5.78;nan
23303;BME280;11820;48.738;9.092;2024-03-02T05:48:10;95120.03;;;5.86;nan
23303;BME280;11820;48.738;9.092;2024-03-02T05:50:36;95123.44;;;6.00;nan
23303;BME280;11820;48.738;9.092;2024-03-02T05:53:01;95122.09;;;6.04;nan
23303;BME280;11820;48.738;9.092;2024-03-02T05:55:26;95119.91;;;6.07;nan
23303;BME280;11820;48.738;9.092;2024-03-02T05:57:52;95123.66;;;6.11;nan
23303;BME280;11820;48.738;9.092;2024-03-02T06:00:32;95124.06;;;6.15;nan
23303;BME280;11820;48.738;9.092;2024-03-02T06:02:58;95119.50;;;6.10;nan
23303;BME280;11820;48.738;9.092;2024-03-02T06:05:24;95121.91;;;6.18;nan
23303;BME280;11820;48.738;9.092;2024-03-02T06:07:50;95120.34;;;6.17;nan
23303;BME280;11820;48.738;9.092;2024-03-02T06:10:15;95119.34;;;6.12;nan
23303;BME280;11820;48.738;9.092;2024-03-02T06:12:40;95126.25;;;6.18;nan
23303;BME280;11820;48.738;9.092;2024-03-02T06:15:06;95121.72;;;6.20;nan
23303;BME280;11820;48.738;9.092;2024-03-02T06:17:32;95122.69;;;6.19;nan
23303;BME280;11820;48.738;9.092;2024-03-02T06:19:57;95120.34;;;6.24;nan
23303;BME280;11820;48.738;9.092;2024-03-02T06:22:22;95119.56;;;6.23;nan
23303;BME280;11820;48.738;9.092;2024-03-02T06:24:50;95121.72;;;6.26;nan
23303;BME280;11820;48.738;9.092;2024-03-02T06:27:15;95128.22;;;6.16;nan
23303;BME280;11820;48.738;9.092;2024-03-02T06:29:40;95134.16;;;6.16;nan
23303;BME280;11820;48.738;9.092;2024-03-02T06:32:06;95130.59;;;6.24;nan
23303;BME280;11820;48.738;9.092;2024-03-02T06:34:31;95146.00;;;6.24;nan
23303;BME280;11820;48.738;9.092;2024-03-02T06:36:56;95138.13;;;6.25;nan
23303;BME280;11820;48.738;9.092;2024-03-02T06:39:22;95141.28;;;6.34;nan
23303;BME280;11820;48.738;9.092;2024-03-02T06:41:47;95147.22;;;6.40;nan
23303;BME280;11820;48.738;9.092;2024-03-02T06:44:13;95149.00;;;6.46;nan
23303;BME280;11820;48.738;9.092;2024-03-02T06:46:38;95149.59;;;6.48;nan
23303;BME280;11820;48.738;9.092;2024-03-02T06:49:04;95153.13;;;6.35;nan
23303;BME280;11820;48.738;9.092;2024-03-02T06:51:29;95148.41;;;6.32;nan
23303;BME280;11820;48.738;9.092;2024-03-02T06:53:55;95142.47;;;6.38;nan
23303;BME280;11820;48.738;9.092;2024-03-02T06:56:20;95145.63;;;6.39;nan
23303;BME280;11820;48.738;9.092;2024-03-02T06:58:46;95148.41;;;6.38;nan
23303;BME280;11820;48.738;9.092;2024-03-02T07:01:14;95140.13;;;6.42;nan
23303;BME280;11820;48.738;9.092;2024-03-02T07:03:40;95138.56;;;6.67;nan
23303;BME280;11820;48.738;9.092;2024-03-02T07:06:05;95146.06;;;6.75;nan
23303;BME280;11820;48.738;9.092;2024-03-02T07:08:30;95143.31;;;6.83;nan
23303;BME280;11820;48.738;9.092;2024-03-02T07:10:56;95143.91;;;6.85;nan
23303;BME280;11820;48.738;9.092;2024-03-02T07:13:22;95143.88;;;6.98;nan
23303;BME280;11820;48.738;9.092;2024-03-02T07:15:47;95145.84;;;6.96;nan
23303;BME280;11820;48.738;9.092;2024-03-02T07:18:28;95153.59;;;6.83;nan
23303;BME280;11820;48.738;9.092;2024-03-02T07:20:53;95145.47;;;6.86;nan
23303;BME280;11820;48.738;9.092;2024-03-02T07:23:18;95143.31;;;6.90;nan
23303;BME280;11820;48.738;9.092;2024-03-02T07:25:45;95152.59;;;6.97;nan
23303;BME280;11820;48.738;9.092;2024-03-02T07:28:11;95145.09;;;6.89;nan
23303;BME280;11820;48.738;9.092;2024-03-02T07:30:36;95147.25;;;6.86;nan
23303;BME280;11820;48.738;9.092;2024-03-02T07:33:04;95143.69;;;6.93;nan
23303;BME280;11820;48.738;9.092;2024-03-02T07:35:29;95146.66;;;6.97;nan
23303;BME280;11820;48.738;9.092;2024-03-02T07:37:56;95149.41;;;6.95;nan
23303;BME280;11820;48.738;9.092;2024-03-02T07:40:22;95145.28;;;6.94;nan
23303;BME280;11820;48.738;9.092;2024-03-02T07:42:50;95143.28;;;6.96;nan
23303;BME280;11820;48.738;9.092;2024-03-02T07:45:16;95146.66;;;6.97;nan
23303;BME280;11820;48.738;9.092;2024-03-02T07:47:41;95155.53;;;6.94;nan
23303;BME280;11820;48.738;9.092;2024-03-02T07:50:07;95155.53;;;6.94;nan
23303;BME280;11820;48.738;9.092;2024-03-02T07:52:33;95155.34;;;6.89;nan
23303;BME280;11820;48.738;9.092;2024-03-02T07:54:58;95159.50;;;6.90;nan
23303;BME280;11820;48.738;9.092;2024-03-02T07:57:24;95158.13;;;6.94;nan
23303;BME280;11820;48.738;9.092;2024-03-02T07:59:49;95161.47;;;7.01;nan
23303;BME280;11820;48.738;9.092;2024-03-02T08:02:15;95156.94;;;7.03;nan
23303;BME280;11820;48.738;9.092;2024-03-02T08:04:41;95152.19;;;7.00;nan
23303;BME280;11820;48.738;9.092;2024-03-02T08:07:06;95164.84;;;7.02;nan
23303;BME280;11820;48.738;9.092;2024-03-02T08:09:31;95160.50;;;7.02;nan
23303;BME280;11820;48.738;9.092;2024-03-02T08:11:57;95160.28;;;7.04;nan
23303;BME280;11820;48.738;9.092;2024-03-02T08:14:23;95148.63;;;7.14;nan
23303;BME280;11820;48.738;9.092;2024-03-02T08:16:48;95148.59;;;7.27;nan
23303;BME280;11820;48.738;9.092;2024-03-02T08:19:14;95142.84;;;7.25;nan
23303;BME280;11820;48.738;9.092;2024-03-02T08:21:40;95145.84;;;7.22;nan
23303;BME280;11820;48.738;9.092;2024-03-02T08:24:05;95144.25;;;7.21;nan
23303;BME280;11820;48.738;9.092;2024-03-02T08:26:31;95149.97;;;7.30;nan
23303;BME280;11820;48.738;9.092;2024-03-02T08:28:57;95138.69;;;7.37;nan
23303;BME280;11820;48.738;9.092;2024-03-02T08:31:23;95132.56;;;7.45;nan
23303;BME280;11820;48.738;9.092;2024-03-02T08:33:48;95134.91;;;7.46;nan
23303;BME280;11820;48.738;9.092;2024-03-02T08:36:14;95137.66;;;7.51;nan
23303;BME280;11820;48.738;9.092;2024-03-02T08:38:40;95139.22;;;7.59;nan
23303;BME280;11820;48.738;9.092;2024-03-02T08:41:06;95136.81;;;7.70;nan
23303;BME280;11820;48.738;9.092;2024-03-02T08:43:32;95140.75;;;7.79;nan
23303;BME280;11820;48.738;9.092;2024-03-02T08:45:57;95146.84;;;7.85;nan
23303;BME280;11820;48.738;9.092;2024-03-02T08:48:23;95146.84;;;7.91;nan
23303;BME280;11820;48.738;9.092;2024-03-02T08:50:48;95143.44;;;7.97;nan
23303;BME280;11820;48.738;9.092;2024-03-02T08:53:13;95142.81;;;8.08;nan
23303;BME280;11820;48.738;9.092;2024-03-02T08:55:43;95142.19;;;8.19;nan
23303;BME280;11820;48.738;9.092;2024-03-02T08:58:08;95145.75;;;8.18;nan
23303;BME280;11820;48.738;9.092;2024-03-02T09:00:34;95142.91;;;8.26;nan
23303;BME280;11820;48.738;9.092;2024-03-02T09:02:59;95143.31;;;8.29;nan
23303;BME280;11820;48.738;9.092;2024-03-02T09:05:24;95148.84;;;8.33;nan
23303;BME280;11820;48.738;9.092;2024-03-02T09:07:49;95140.44;;;8.44;nan
23303;BME280;11820;48.738;9.092;2024-03-02T09:10:15;95144.34;;;8.53;nan
23303;BME280;11820;48.738;9.092;2024-03-02T09:12:41;95142.69;;;8.65;nan
23303;BME280;11820;48.738;9.092;2024-03-02T09:15:06;95138.22;;;8.78;nan
23303;BME280;11820;48.738;9.092;2024-03-02T09:17:32;95141.28;;;8.93;nan
23303;BME280;11820;48.738;9.092;2024-03-02T09:19:57;95135.50;;;8.98;nan
23303;BME280;11820;48.738;9.092;2024-03-02T09:22:23;95138.41;;;9.08;nan
23303;BME280;11820;48.738;9.092;2024-03-02T09:24:48;95134.09;;;9.20;nan
23303;BME280;11820;48.738;9.092;2024-03-02T09:27:13;95127.53;;;9.24;nan
23303;BME280;11820;48.738;9.092;2024-03-02T09:29:39;95134.00;;;9.33;nan
23303;BME280;11820;48.738;9.092;2024-03-02T09:32:05;95139.16;;;9.51;nan
23303;BME280;11820;48.738;9.092;2024-03-02T09:34:31;95131.56;;;9.56;nan
23303;BME280;11820;48.738;9.092;2024-03-02T09:36:57;95127.84;;;9.69;nan
23303;BME280;11820;48.738;9.092;2024-03-02T09:39:22;95117.78;;;9.79;nan
23303;BME280;11820;48.738;9.092;2024-03-02T09:41:48;95120.38;;;9.79;nan
23303;BME280;11820;48.738;9.092;2024-03-02T09:44:14;95108.00;;;9.99;nan
23303;BME280;11820;48.738;9.092;2024-03-02T09:46:39;95106.75;;;10.08;nan
23303;BME280;11820;48.738;9.092;2024-03-02T09:49:04;95104.78;;;10.33;nan
23303;BME280;11820;48.738;9.092;2024-03-02T09:51:31;95107.97;;;10.35;nan
23303;BME280;11820;48.738;9.092;2024-03-02T09:53:56;95117.13;;;10.61;nan
23303;BME280;11820;48.738;9.092;2024-03-02T09:56:22;95108.38;;;10.62;nan
23303;BME280;11820;48.738;9.092;2024-03-02T09:58:47;95104.91;;;10.79;nan
23303;BME280;11820;48.738;9.092;2024-03-02T10:01:13;95102.25;;;10.97;nan
23303;BME280;11820;48.738;9.092;2024-03-02T10:03:38;95099.09;;;11.29;nan
23303;BME280;11820;48.738;9.092;2024-03-02T10:06:24;95098.66;;;11.21;nan
23303;BME280;11820;48.738;9.092;2024-03-02T10:08:50;95096.81;;;11.44;nan
23303;BME280;11820;48.738;9.092;2024-03-02T10:11:42;95105.28;;;11.63;nan
23303;BME280;11820;48.738;9.092;2024-03-02T10:14:11;95099.16;;;11.80;nan
23303;BME280;11820;48.738;9.092;2024-03-02T10:16:41;95094.72;;;12.20;nan
23303;BME280;11820;48.738;9.092;2024-03-02T10:19:21;95092.75;;;12.39;nan
23303;BME280;11820;48.738;9.092;2024-03-02T10:21:49;95094.06;;;12.41;nan
23303;BME280;11820;48.738;9.092;2024-03-02T10:24:15;95086.66;;;12.61;nan
23303;BME280;11820;48.738;9.092;2024-03-02T10:26:41;95082.88;;;12.69;nan
23303;BME280;11820;48.738;9.092;2024-03-02T10:29:08;95083.84;;;12.79;nan
23303;BME280;11820;48.738;9.092;2024-03-02T10:31:39;95088.41;;;13.21;nan
23303;BME280;11820;48.738;9.092;2024-03-02T10:34:05;95080.53;;;13.54;nan
23303;BME280;11820;48.738;9.092;2024-03-02T10:36:32;95080.06;;;14.00;nan
23303;BME280;11820;48.738;9.092;2024-03-02T10:38:58;95079.34;;;14.05;nan
23303;BME280;11820;48.738;9.092;2024-03-02T10:41:26;95077.47;;;15.16;nan
23303;BME280;11820;48.738;9.092;2024-03-02T10:43:52;95059.31;;;20.99;nan
23303;BME280;11820;48.738;9.092;2024-03-02T10:46:27;95047.50;;;24.37;nan
23303;BME280;11820;48.738;9.092;2024-03-02T10:48:54;95047.31;;;25.98;nan
23303;BME280;11820;48.738;9.092;2024-03-02T10:51:20;95038.09;;;27.92;nan
23303;BME280;11820;48.738;9.092;2024-03-02T10:53:45;95029.22;;;28.00;nan
23303;BME280;11820;48.738;9.092;2024-03-02T10:56:16;95032.00;;;28.27;nan
23303;BME280;11820;48.738;9.092;2024-03-02T10:58:43;95029.44;;;28.19;nan
23303;BME280;11820;48.738;9.092;2024-03-02T11:01:11;95033.19;;;25.77;nan
23303;BME280;11820;48.738;9.092;2024-03-02T11:03:38;95041.78;;;22.48;nan
23303;BME280;11820;48.738;9.092;2024-03-02T11:06:08;95045.31;;;21.49;nan
23303;BME280;11820;48.738;9.092;2024-03-02T11:08:34;95050.09;;;20.46;nan
23303;BME280;11820;48.738;9.092;2024-03-02T11:11:07;95037.53;;;22.38;nan
23303;BME280;11820;48.738;9.092;2024-03-02T11:13:33;95029.16;;;25.80;nan
23303;BME280;11820;48.738;9.092;2024-03-02T11:16:04;95022.81;;;26.59;nan
23303;BME280;11820;48.738;9.092;2024-03-02T11:18:31;95011.16;;;27.93;nan
23303;BME280;11820;48.738;9.092;2024-03-02T11:20:57;95004.25;;;29.93;nan
23303;BME280;11820;48.738;9.092;2024-03-02T11:23:34;94999.06;;;30.30;nan
23303;BME280;11820;48.738;9.092;2024-03-02T11:26:22;94992.53;;;32.57;nan
23303;BME280;11820;48.738;9.092;2024-03-02T11:28:50;94983.28;;;30.56;nan
23303;BME280;11820;48.738;9.092;2024-03-02T11:31:16;94981.34;;;32.52;nan
23303;BME280;11820;48.738;9.092;2024-03-02T11:33:41;94980.66;;;30.98;nan
23303;BME280;11820;48.738;9.092;2024-03-02T11:36:08;94981.50;;;32.92;nan
23303;BME280;11820;48.738;9.092;2024-03-02T11:38:35;94977.78;;;34.19;nan
23303;BME280;11820;48.738;9.092;2024-03-02T11:41:07;94983.91;;;31.48;nan
23303;BME280;11820;48.738;9.092;2024-03-02T11:43:37;94966.59;;;32.65;nan
23303;BME280;11820;48.738;9.092;2024-03-02T11:46:05;94968.94;;;29.22;nan
23303;BME280;11820;48.738;9.092;2024-03-02T11:48:32;94970.19;;;29.71;nan
23303;BME280;11820;48.738;9.092;2024-03-02T11:50:58;94975.88;;;28.44;nan
23303;BME280;11820;48.738;9.092;2024-03-02T11:53:26;94957.56;;;30.52;nan
23303;BME280;11820;48.738;9.092;2024-03-02T11:55:55;94957.78;;;30.43;nan
23303;BME280;11820;48.738;9.092;2024-03-02T11:58:21;94966.38;;;28.70;nan
23303;BME280;11820;48.738;9.092;2024-03-02T12:00:55;94964.28;;;25.48;nan
23303;BME280;11820;48.738;9.092;2024-03-02T12:03:23;94954.81;;;24.76;nan
23303;BME280;11820;48.738;9.092;2024-03-02T12:05:51;94962.47;;;23.79;nan
23303;BME280;11820;48.738;9.092;2024-03-02T12:08:16;94960.09;;;22.12;nan
23303;BME280;11820;48.738;9.092;2024-03-02T12:10:41;94959.28;;;23.91;nan
23303;BME280;11820;48.738;9.092;2024-03-02T12:13:07;94958.34;;;23.39;nan
23303;BME280;11820;48.738;9.092;2024-03-02T12:15:34;94950.81;;;23.24;nan
23303;BME280;11820;48.738;9.092;2024-03-02T12:18:02;94946.66;;;22.36;nan
23303;BME280;11820;48.738;9.092;2024-03-02T12:20:29;94946.31;;;22.15;nan
23303;BME280;11820;48.738;9.092;2024-03-02T12:22:58;94947.38;;;21.79;nan
23303;BME280;11820;48.738;9.092;2024-03-02T12:25:24;94941.66;;;21.63;nan
23303;BME280;11820;48.738;9.092;2024-03-02T12:27:54;94937.28;;;22.30;nan
23303;BME280;11820;48.738;9.092;2024-03-02T12:30:20;94937.75;;;23.67;nan
23303;BME280;11820;48.738;9.092;2024-03-02T12:32:46;94922.47;;;26.73;nan
23303;BME280;11820;48.738;9.092;2024-03-02T12:35:11;94922.75;;;29.45;nan
23303;BME280;11820;48.738;9.092;2024-03-02T12:37:47;94909.34;;;33.49;nan
23303;BME280;11820;48.738;9.092;2024-03-02T12:40:14;94904.16;;;35.34;nan
23303;BME280;11820;48.738;9.092;2024-03-02T12:42:40;94896.72;;;36.60;nan
23303;BME280;11820;48.738;9.092;2024-03-02T12:45:10;94896.78;;;35.06;nan
23303;BME280;11820;48.738;9.092;2024-03-02T12:47:36;94898.81;;;35.65;nan
23303;BME280;11820;48.738;9.092;2024-03-02T12:50:03;94898.03;;;32.60;nan
23303;BME280;11820;48.738;9.092;2024-03-02T12:52:29;94883.97;;;36.71;nan
23303;BME280;11820;48.738;9.092;2024-03-02T12:54:54;94890.06;;;33.83;nan
23303;BME280;11820;48.738;9.092;2024-03-02T12:57:27;94893.41;;;35.86;nan
23303;BME280;11820;48.738;9.092;2024-03-02T13:00:02;94888.75;;;38.12;nan
23303;BME280;11820;48.738;9.092;2024-03-02T13:02:34;94882.34;;;38.66;nan
23303;BME280;11820;48.738;9.092;2024-03-02T13:05:00;94892.56;;;35.02;nan
23303;BME280;11820;48.738;9.092;2024-03-02T13:07:26;94881.59;;;34.42;nan
23303;BME280;11820;48.738;9.092;2024-03-02T13:09:53;94888.84;;;29.96;nan
23303;BME280;11820;48.738;9.092;2024-03-02T13:12:21;94886.91;;;31.99;nan
23303;BME280;11820;48.738;9.092;2024-03-02T13:14:48;94881.22;;;31.53;nan
23303;BME280;11820;48.738;9.092;2024-03-02T13:17:14;94888.13;;;27.45;nan
23303;BME280;11820;48.738;9.092;2024-03-02T13:19:50;94893.56;;;25.20;nan
23303;BME280;11820;48.738;9.092;2024-03-02T13:22:16;94894.50;;;24.53;nan
23303;BME280;11820;48.738;9.092;2024-03-02T13:24:42;94895.69;;;22.62;nan
23303;BME280;11820;48.738;9.092;2024-03-02T13:27:08;94889.66;;;24.21;nan